Time;durP1;ratioP1;P1;durP2;ratioP2;P2;SDS_P1;SDS_P2;PMS_P1;PMS_P2;Temp;Humidity;BMP_temperature;BMP_pressure;BME280_temperature;BME280_humidity;BME280_pressure;Samples;Min_cycle;Max_cycle;Signal;HPM_P1;HPM_P2
2023/10/17 00:01:44;;;;;;;;;;;;;;;15.09;34.48;100553.09;5111453;28;19912;-67
2023/10/17 00:04:32;;;;;;;;;;;;;;;15.14;34.05;100542.47;5095719;28;19961;-67
2023/10/17 00:06:58;;;;;;;;;;;;;;;15.15;34.17;100535.16;5095203;28;20336;-67
2023/10/17 00:09:24;;;;;;;;;;;;;;;15.16;33.99;100534.94;5077790;28;19912;-68
2023/10/17 00:14:20;;;;;;;;;;;;;;;15.15;34.16;100535.16;5095406;28;20006;-68
2023/10/17 00:16:45;;;;;;;;;;;;;;;15.09;34.52;100532.28;5102915;28;20015;-68
2023/10/17 00:19:11;;;;;;;;;;;;;;;15.09;34.52;100535.00;5116376;28;19912;-68
2023/10/17 00:21:37;;;;;;;;;;;;;;;15.08;34.76;100538.75;5102105;28;19919;-68
2023/10/17 00:24:08;;;;;;;;;;;;;;;15.06;34.92;100529.19;5101587;28;20399;-68
2023/10/17 00:26:34;;;;;;;;;;;;;;;15.07;34.18;100533.56;5097396;28;20057;-68
2023/10/17 00:29:04;;;;;;;;;;;;;;;15.05;34.63;100527.56;5115481;28;20390;-68
2023/10/17 00:31:30;;;;;;;;;;;;;;;15.06;34.41;100526.50;5115962;28;20060;-68
2023/10/17 00:33:58;;;;;;;;;;;;;;;15.02;34.61;100530.69;5115934;28;19957;-68
2023/10/17 00:36:27;;;;;;;;;;;;;;;15.02;34.76;100525.28;5115472;28;20391;-68
2023/10/17 00:38:54;;;;;;;;;;;;;;;14.97;35.73;100530.53;5109428;28;20372;-68
2023/10/17 00:41:29;;;;;;;;;;;;;;;14.97;35.82;100525.13;5094850;28;19929;-68
2023/10/17 00:43:55;;;;;;;;;;;;;;;14.85;36.04;100528.53;5094695;28;19912;-68
2023/10/17 00:46:20;;;;;;;;;;;;;;;14.87;35.83;100529.16;5094970;28;20001;-68
2023/10/17 00:48:47;;;;;;;;;;;;;;;14.88;36.04;100527.28;5094871;28;19918;-68
2023/10/17 00:51:19;;;;;;;;;;;;;;;14.86;36.47;100535.63;5094838;28;19998;-68
2023/10/17 00:53:46;;;;;;;;;;;;;;;14.92;35.69;100520.38;5094076;28;19969;-68
2023/10/17 00:56:11;;;;;;;;;;;;;;;14.82;36.31;100523.59;5103302;28;19939;-68
2023/10/17 00:58:36;;;;;;;;;;;;;;;14.71;37.07;100524.31;5094747;28;19912;-68
2023/10/17 01:03:43;;;;;;;;;;;;;;;14.77;37.26;100520.72;5074185;28;19999;-68
2023/10/17 01:08:57;;;;;;;;;;;;;;;14.82;37.32;100510.06;5085299;28;19912;-68
2023/10/17 01:11:27;;;;;;;;;;;;;;;14.72;37.67;100520.53;5094413;28;19927;-68
2023/10/17 01:13:53;;;;;;;;;;;;;;;14.44;37.75;100458.78;5094738;28;19912;-68
2023/10/17 01:16:19;;;;;;;;;;;;;;;14.82;37.31;100501.13;5080035;28;19923;-68
2023/10/17 01:18:44;;;;;;;;;;;;;;;14.71;37.86;100497.28;5114750;28;19916;-69
2023/10/17 01:21:19;;;;;;;;;;;;;;;14.73;37.21;100507.84;5104983;28;19912;-68
2023/10/17 01:23:45;;;;;;;;;;;;;;;14.81;37.33;100503.00;5098104;28;19922;-68
2023/10/17 01:26:14;;;;;;;;;;;;;;;14.85;37.17;100506.09;5130746;27;20006;-68
2023/10/17 01:28:40;;;;;;;;;;;;;;;14.88;36.85;100500.25;5114587;28;20003;-68
2023/10/17 01:31:06;;;;;;;;;;;;;;;14.85;37.50;100501.50;5114423;28;19968;-68
2023/10/17 01:33:31;;;;;;;;;;;;;;;14.91;36.81;100502.50;5114804;28;19918;-68
2023/10/17 01:35:58;;;;;;;;;;;;;;;15.00;36.41;100498.47;5110017;28;19920;-68
2023/10/17 01:38:26;;;;;;;;;;;;;;;15.08;36.18;100503.59;5094092;28;19912;-68
2023/10/17 01:40:53;;;;;;;;;;;;;;;15.14;36.79;100498.34;5093975;28;19912;-68
2023/10/17 01:43:18;;;;;;;;;;;;;;;15.11;36.79;100502.31;5075977;28;20003;-68
2023/10/17 01:45:48;;;;;;;;;;;;;;;15.14;36.91;100499.19;5093979;28;20320;-67
2023/10/17 01:48:13;;;;;;;;;;;;;;;15.18;36.76;100496.84;5093625;28;19919;-68
2023/10/17 01:50:39;;;;;;;;;;;;;;;15.12;37.16;100495.88;5109544;28;19912;-67
2023/10/17 01:53:13;;;;;;;;;;;;;;;15.15;36.78;100500.81;5093970;28;20345;-68
2023/10/17 01:55:39;;;;;;;;;;;;;;;15.13;37.16;100488.56;5101168;28;20036;-67
2023/10/17 01:58:07;;;;;;;;;;;;;;;15.07;37.34;100488.41;5093840;28;20039;-67
2023/10/17 02:00:39;;;;;;;;;;;;;;;15.03;37.60;100495.31;5093615;28;20246;-67
2023/10/17 02:03:05;;;;;;;;;;;;;;;15.07;37.59;100488.41;5093636;28;20400;-67
2023/10/17 02:05:31;;;;;;;;;;;;;;;15.00;37.53;100486.81;5093553;28;19981;-67
2023/10/17 02:07:56;;;;;;;;;;;;;;;15.02;37.41;100490.94;5093733;28;20268;-67
2023/10/17 02:10:23;;;;;;;;;;;;;;;15.02;37.68;100488.25;5093147;28;20391;-68
2023/10/17 02:12:49;;;;;;;;;;;;;;;15.01;37.48;100492.00;5093348;28;19923;-68
2023/10/17 02:15:23;;;;;;;;;;;;;;;15.02;37.78;100501.75;5093745;28;19912;-67
2023/10/17 02:17:50;;;;;;;;;;;;;;;15.03;37.64;100491.78;5110949;28;19938;-68
2023/10/17 02:22:53;;;;;;;;;;;;;;;15.07;37.64;100484.88;5100174;28;19916;-67
2023/10/17 02:25:21;;;;;;;;;;;;;;;15.04;37.42;100480.75;5100165;28;20383;-67
2023/10/17 02:27:50;;;;;;;;;;;;;;;15.02;37.55;100484.72;5081903;28;19971;-67
2023/10/17 02:30:16;;;;;;;;;;;;;;;14.98;37.86;100481.63;5100321;28;20002;-67
2023/10/17 02:32:52;;;;;;;;;;;;;;;15.00;37.44;100481.41;5100314;28;19916;-67
2023/10/17 02:35:18;;;;;;;;;;;;;;;14.95;38.15;100487.50;5100374;28;19962;-67
2023/10/17 02:37:44;;;;;;;;;;;;;;;14.84;38.45;100480.94;5100317;28;19960;-67
2023/10/17 02:40:16;;;;;;;;;;;;;;;14.83;38.57;100468.44;5099922;28;20369;-67
2023/10/17 02:42:42;;;;;;;;;;;;;;;14.88;38.66;100475.91;5099894;28;19958;-67
2023/10/17 02:45:07;;;;;;;;;;;;;;;14.92;38.47;100462.78;5099805;28;19912;-67
2023/10/17 02:47:34;;;;;;;;;;;;;;;14.97;38.40;100471.88;5099956;28;19912;-67
2023/10/17 02:50:01;;;;;;;;;;;;;;;15.00;38.32;100463.31;5100098;28;20008;-67
2023/10/17 02:52:26;;;;;;;;;;;;;;;15.01;38.09;100466.84;5081972;28;19912;-67
2023/10/17 02:54:59;;;;;;;;;;;;;;;15.04;38.26;100464.53;5100869;28;20024;-67
2023/10/17 02:57:27;;;;;;;;;;;;;;;15.15;37.97;100467.53;5114823;28;19920;-67
2023/10/17 02:59:52;;;;;;;;;;;;;;;15.10;38.26;100470.94;5120732;28;20039;-67
2023/10/17 03:02:19;;;;;;;;;;;;;;;15.15;38.17;100462.94;5092310;28;20387;-67
2023/10/17 03:04:44;;;;;;;;;;;;;;;15.13;37.82;100470.47;5079872;28;20273;-67
2023/10/17 03:07:11;;;;;;;;;;;;;;;15.12;38.10;100457.16;5079533;28;19914;-67
2023/10/17 03:09:38;;;;;;;;;;;;;;;15.05;38.32;100465.34;5079615;28;19920;-67
2023/10/17 03:17:04;;;;;;;;;;;;;;;14.95;38.87;100459.63;5092216;28;20325;-67
2023/10/17 03:19:29;;;;;;;;;;;;;;;15.01;38.91;100458.75;5099716;28;19919;-67
2023/10/17 03:21:55;;;;;;;;;;;;;;;14.97;39.00;100457.50;5099684;28;19912;-67
2023/10/17 03:24:28;;;;;;;;;;;;;;;14.93;39.36;100457.13;5099706;28;19916;-67
2023/10/17 03:26:55;;;;;;;;;;;;;;;14.89;39.12;100461.31;5099713;28;20299;-67
2023/10/17 03:29:23;;;;;;;;;;;;;;;14.92;39.01;100457.38;5098340;28;19916;-67
2023/10/17 03:31:53;;;;;;;;;;;;;;;14.98;38.95;100461.88;5096377;28;19912;-67
2023/10/17 03:34:28;;;;;;;;;;;;;;;14.91;39.43;100461.94;5096417;28;19935;-67
2023/10/17 03:36:55;;;;;;;;;;;;;;;14.95;39.12;100452.34;5078241;28;19920;-67
2023/10/17 03:39:28;;;;;;;;;;;;;;;14.94;39.19;100455.28;5096393;28;19912;-67
2023/10/17 03:41:56;;;;;;;;;;;;;;;15.05;38.39;100457.25;5096042;28;19995;-68
2023/10/17 03:44:29;;;;;;;;;;;;;;;15.00;39.24;100454.38;5095933;28;20353;-67
2023/10/17 03:46:55;;;;;;;;;;;;;;;14.98;39.20;100448.34;5079332;28;19912;-68
2023/10/17 03:49:24;;;;;;;;;;;;;;;15.00;39.04;100446.25;5095986;28;19951;-67
2023/10/17 03:51:54;;;;;;;;;;;;;;;15.08;38.57;100451.34;5095847;28;19920;-67
2023/10/17 03:54:22;;;;;;;;;;;;;;;15.00;39.23;100438.97;5095795;28;19912;-68
2023/10/17 03:56:56;;;;;;;;;;;;;;;14.97;39.16;100446.69;5104466;28;19916;-68
2023/10/17 04:02:20;;;;;;;;;;;;;;;15.02;38.80;100441.44;5072983;28;20372;-67
2023/10/17 04:05:08;;;;;;;;;;;;;;;15.05;39.06;100446.41;5075453;28;19916;-67
2023/10/17 04:07:34;;;;;;;;;;;;;;;15.09;38.81;100442.22;5086789;28;19913;-68
2023/10/17 04:12:42;;;;;;;;;;;;;;;15.09;38.88;100442.22;5095989;28;19919;-67
2023/10/17 04:15:09;;;;;;;;;;;;;;;15.16;38.72;100448.38;5095438;28;19920;-67
2023/10/17 04:17:36;;;;;;;;;;;;;;;15.22;38.83;100446.66;5109854;28;19931;-67
2023/10/17 04:20:11;;;;;;;;;;;;;;;15.24;38.77;100433.72;5115318;28;20006;-67
2023/10/17 04:22:40;;;;;;;;;;;;;;;15.27;38.66;100438.69;5095805;28;19973;-67
2023/10/17 04:25:20;;;;;;;;;;;;;;;15.27;38.48;100436.81;5102637;28;19916;-67
2023/10/17 04:27:54;;;;;;;;;;;;;;;15.23;38.93;100432.91;5095629;28;20299;-67
2023/10/17 04:30:29;;;;;;;;;;;;;;;15.24;38.80;100428.31;5095741;28;19912;-67
2023/10/17 04:33:05;;;;;;;;;;;;;;;15.20;39.24;100435.22;5095388;28;19916;-67
2023/10/17 04:35:32;;;;;;;;;;;;;;;15.22;38.96;100425.84;5095375;28;19913;-67
2023/10/17 04:38:11;;;;;;;;;;;;;;;15.21;39.03;100424.19;5095214;28;19912;-67
2023/10/17 04:40:37;;;;;;;;;;;;;;;15.29;38.68;100423.06;5074979;28;19916;-67
2023/10/17 04:45:55;;;;;;;;;;;;;;;15.40;38.37;100418.78;5074840;28;19913;-68
2023/10/17 04:48:32;;;;;;;;;;;;;;;15.39;38.62;100415.22;5081826;28;19918;-68
2023/10/17 04:51:05;;;;;;;;;;;;;;;15.29;38.86;100414.94;5095234;28;19958;-67
2023/10/17 04:53:35;;;;;;;;;;;;;;;15.25;39.43;100419.16;5123578;27;19935;-68
2023/10/17 04:56:09;;;;;;;;;;;;;;;15.23;39.84;100416.69;5102947;28;19940;-67
2023/10/17 04:58:42;;;;;;;;;;;;;;;15.19;39.68;100407.38;5094810;28;19916;-67
2023/10/17 05:01:34;;;;;;;;;;;;;;;15.06;40.87;100413.75;5095161;28;19916;-66
2023/10/17 05:03:59;;;;;;;;;;;;;;;15.06;41.05;100407.47;5074470;28;20015;-67
2023/10/17 05:06:52;;;;;;;;;;;;;;;15.06;40.88;100411.03;5074931;28;20392;-67
2023/10/17 06:17:23;;;;;;;;;;;;;;;15.18;40.80;100405.69;5099676;28;20379;-68
2023/10/17 06:19:49;;;;;;;;;;;;;;;15.20;40.56;100402.78;5104367;28;19912;-68
2023/10/17 06:24:45;;;;;;;;;;;;;;;15.26;40.43;100405.38;5100346;28;20591;-68
2023/10/17 06:32:48;;;;;;;;;;;;;;;15.38;40.21;100393.78;5095417;28;20003;-68
2023/10/17 06:35:20;;;;;;;;;;;;;;;15.32;40.09;100392.00;5103100;28;19919;-68
2023/10/17 06:37:49;;;;;;;;;;;;;;;15.27;40.23;100406.22;5102914;28;19980;-68
2023/10/17 06:40:17;;;;;;;;;;;;;;;15.26;40.31;100405.38;5104680;28;19966;-66
2023/10/17 06:42:57;;;;;;;;;;;;;;;15.21;40.32;100399.84;5106528;28;19960;-66
2023/10/17 06:45:23;;;;;;;;;;;;;;;15.28;40.14;100397.91;5106912;28;19912;-66
2023/10/17 06:47:49;;;;;;;;;;;;;;;15.28;40.37;100392.47;5120570;28;19918;-66
2023/10/17 06:52:40;;;;;;;;;;;;;;;15.38;39.74;100391.94;5129078;28;19911;-66
2023/10/17 06:55:20;;;;;;;;;;;;;;;15.49;39.59;100393.06;5121080;28;19919;-65
2023/10/17 06:57:50;;;;;;;;;;;;;;;15.43;39.56;100393.94;5098335;28;20376;-66
2023/10/17 07:00:17;;;;;;;;;;;;;;;15.46;39.29;100394.31;5075417;28;19912;-65
2023/10/17 07:02:48;;;;;;;;;;;;;;;15.36;39.72;100391.34;5074526;28;19919;-66
2023/10/17 07:05:19;;;;;;;;;;;;;;;15.48;39.21;100392.22;5094033;28;19916;-68
2023/10/17 07:07:52;;;;;;;;;;;;;;;15.45;39.29;100408.06;5096373;28;20383;-68
2023/10/17 07:10:24;;;;;;;;;;;;;;;15.42;39.55;100403.13;5096467;28;20361;-67
2023/10/17 07:13:08;;;;;;;;;;;;;;;15.50;39.34;100392.00;5079461;28;19912;-66
2023/10/17 07:15:33;;;;;;;;;;;;;;;15.52;39.26;100397.19;5075429;28;20403;-65
2023/10/17 07:23:41;;;;;;;;;;;;;;;15.58;39.11;100388.13;5064301;28;20003;-65
2023/10/17 07:26:55;;;;;;;;;;;;;;;15.58;39.37;100388.13;5116204;28;19965;-65
2023/10/17 07:28:56;;;;;;;;;;;;;;;15.52;39.61;100397.19;5071927;28;19919;-64
2023/10/17 07:31:24;;;;;;;;;;;;;;;15.51;39.78;100406.34;5091885;28;19916;-65
2023/10/17 07:37:13;;;;;;;;;;;;;;;15.51;39.75;100390.94;5018484;28;19917;-66
2023/10/17 07:39:39;;;;;;;;;;;;;;;15.52;39.88;100392.59;5092613;28;19912;-66
2023/10/17 07:42:05;;;;;;;;;;;;;;;15.56;39.96;100384.84;5096605;28;20379;-65
2023/10/17 07:44:41;;;;;;;;;;;;;;;15.53;39.95;100394.25;5096615;28;19912;-66
2023/10/17 07:47:21;;;;;;;;;;;;;;;15.58;40.18;100380.00;5096437;28;20003;-66
2023/10/17 07:49:49;;;;;;;;;;;;;;;15.58;40.37;100371.91;5096208;28;19951;-66
2023/10/17 07:52:17;;;;;;;;;;;;;;;15.60;40.27;100378.75;5096086;28;19966;-66
2023/10/17 07:54:55;;;;;;;;;;;;;;;15.52;40.23;100360.09;5095646;28;20006;-66
2023/10/17 07:57:23;;;;;;;;;;;;;;;15.59;40.15;100368.16;5102390;28;20505;-66
2023/10/17 07:59:51;;;;;;;;;;;;;;;15.63;39.78;100367.44;5095721;28;19938;-66
2023/10/17 08:02:20;;;;;;;;;;;;;;;15.58;40.04;100374.59;5095379;28;19916;-66
2023/10/17 08:04:49;;;;;;;;;;;;;;;15.59;39.61;100370.84;5095817;28;19916;-66
2023/10/17 08:07:15;;;;;;;;;;;;;;;15.60;39.72;100370.63;5095789;28;19958;-66
2023/10/17 08:09:50;;;;;;;;;;;;;;;15.67;39.38;100365.09;5095639;28;20002;-66
2023/10/17 08:12:16;;;;;;;;;;;;;;;15.73;39.27;100371.47;5095639;28;20007;-66
2023/10/17 08:14:42;;;;;;;;;;;;;;;15.64;39.59;100379.94;5095478;28;19959;-66
2023/10/17 08:17:09;;;;;;;;;;;;;;;15.71;39.42;100381.72;5095156;28;20388;-66
2023/10/17 08:22:18;;;;;;;;;;;;;;;15.81;39.28;100372.03;5095451;28;19982;-66
2023/10/17 08:24:51;;;;;;;;;;;;;;;15.85;39.28;100375.09;5095536;28;20384;-66
2023/10/17 08:29:49;;;;;;;;;;;;;;;15.84;38.98;100368.00;5095176;28;19916;-66
2023/10/17 08:34:47;;;;;;;;;;;;;;;15.87;38.36;100373.81;5094849;28;19912;-66
2023/10/17 08:37:26;;;;;;;;;;;;;;;15.89;38.50;100375.47;5095053;28;19916;-66
2023/10/17 08:39:51;;;;;;;;;;;;;;;15.75;38.87;100372.94;5100210;28;19912;-66
2023/10/17 08:44:54;;;;;;;;;;;;;;;15.78;38.63;100367.06;5094883;28;19923;-66
2023/10/17 08:47:24;;;;;;;;;;;;;;;15.77;38.72;100364.59;5094819;28;19912;-66
2023/10/17 08:49:50;;;;;;;;;;;;;;;15.78;38.53;100368.94;5094866;28;19912;-66
2023/10/17 08:52:23;;;;;;;;;;;;;;;15.74;38.50;100367.75;5094743;28;19912;-66
2023/10/17 08:54:48;;;;;;;;;;;;;;;15.81;38.29;100365.78;5077232;28;19938;-66
2023/10/17 08:57:14;;;;;;;;;;;;;;;15.89;38.08;100370.88;5102058;28;20293;-66
2023/10/17 09:04:52;;;;;;;;;;;;;;;15.90;38.08;100366.25;5094746;28;19919;-66
2023/10/17 09:07:31;;;;;;;;;;;;;;;15.96;38.28;100373.47;5094771;28;20314;-65
2023/10/17 09:10:02;;;;;;;;;;;;;;;15.94;38.73;100368.28;5094634;28;19969;-66
2023/10/17 09:12:28;;;;;;;;;;;;;;;15.85;38.97;100366.97;5094778;28;19916;-65
2023/10/17 09:14:56;;;;;;;;;;;;;;;15.89;38.59;100370.03;5094808;28;20361;-66
2023/10/17 09:19:53;;;;;;;;;;;;;;;15.86;38.78;100358.63;5115070;28;19915;-66
2023/10/17 09:22:21;;;;;;;;;;;;;;;15.85;39.24;100346.13;5077762;28;20284;-66
2023/10/17 09:24:49;;;;;;;;;;;;;;;15.87;39.21;100354.03;5122959;27;19942;-66
2023/10/17 09:27:16;;;;;;;;;;;;;;;15.89;39.07;100341.06;5116010;28;19916;-66
2023/10/17 09:29:42;;;;;;;;;;;;;;;16.08;38.54;100351.84;5108346;28;19934;-65
2023/10/17 09:32:08;;;;;;;;;;;;;;;16.06;38.77;100355.63;5098650;28;19912;-66
2023/10/17 09:34:34;;;;;;;;;;;;;;;16.01;38.62;100352.78;5106324;28;19918;-66
2023/10/17 09:37:04;;;;;;;;;;;;;;;16.04;38.35;100354.19;5120806;28;19916;-66
2023/10/17 09:39:31;;;;;;;;;;;;;;;16.09;38.28;100356.22;5109290;28;20394;-65
2023/10/17 09:41:57;;;;;;;;;;;;;;;16.05;38.03;100351.25;5099046;28;19912;-66
2023/10/17 09:44:22;;;;;;;;;;;;;;;16.06;38.06;100347.50;5097426;28;19919;-66
2023/10/17 09:46:50;;;;;;;;;;;;;;;16.05;38.03;100345.81;5079108;28;20008;-65
2023/10/17 09:49:20;;;;;;;;;;;;;;;16.08;38.31;100347.22;5099993;28;20330;-65
2023/10/17 09:51:47;;;;;;;;;;;;;;;16.09;38.30;100348.91;5101010;28;20260;-66
2023/10/17 09:54:16;;;;;;;;;;;;;;;16.08;38.25;100351.84;5100782;28;19912;-65
2023/10/17 09:56:43;;;;;;;;;;;;;;;16.19;38.24;100348.31;5113277;28;19951;-66
2023/10/17 09:59:24;;;;;;;;;;;;;;;16.24;37.98;100362.00;5120212;28;19919;-65
2023/10/17 10:01:50;;;;;;;;;;;;;;;16.27;38.10;100353.41;5113204;28;19921;-65
2023/10/17 10:04:19;;;;;;;;;;;;;;;16.26;37.99;100362.59;5097049;28;19912;-65
2023/10/17 10:06:44;;;;;;;;;;;;;;;16.38;37.96;100359.88;5099039;28;19935;-65
2023/10/17 10:09:13;;;;;;;;;;;;;;;16.39;37.79;100366.97;5101726;28;19919;-65
2023/10/17 10:11:48;;;;;;;;;;;;;;;16.39;38.19;100373.19;5100710;28;19954;-65
2023/10/17 10:14:13;;;;;;;;;;;;;;;16.37;38.11;100364.47;5100284;28;19912;-65
2023/10/17 10:16:53;;;;;;;;;;;;;;;16.44;38.38;100364.38;5106016;28;19916;-65
2023/10/17 10:19:19;;;;;;;;;;;;;;;16.51;38.28;100356.09;5116890;28;19916;-65
2023/10/17 10:21:54;;;;;;;;;;;;;;;16.59;38.49;100356.59;5103322;28;20284;-65
2023/10/17 10:24:23;;;;;;;;;;;;;;;16.68;38.23;100346.22;5109922;28;20351;-65
2023/10/17 10:27:09;;;;;;;;;;;;;;;16.69;38.28;100339.72;5106164;28;19919;-65
2023/10/17 10:29:35;;;;;;;;;;;;;;;16.82;38.37;100346.78;5104443;28;19916;-65
2023/10/17 10:32:06;;;;;;;;;;;;;;;16.77;38.38;100338.53;5128937;28;19912;-65
2023/10/17 10:34:37;;;;;;;;;;;;;;;16.66;38.92;100340.22;5127312;28;19965;-65
2023/10/17 10:37:03;;;;;;;;;;;;;;;16.80;38.55;100343.50;5121100;28;19969;-65
2023/10/17 10:39:30;;;;;;;;;;;;;;;16.85;38.39;100337.41;5123382;28;19916;-65
2023/10/17 10:41:59;;;;;;;;;;;;;;;16.92;38.18;100338.91;5127258;28;19918;-66
2023/10/17 10:44:25;;;;;;;;;;;;;;;16.89;38.17;100331.25;5097685;28;19922;-66
2023/10/17 10:46:52;;;;;;;;;;;;;;;16.86;38.26;100331.72;5111633;28;19994;-66
2023/10/17 10:49:24;;;;;;;;;;;;;;;16.85;38.36;100340.09;5127225;28;19919;-65
2023/10/17 10:51:50;;;;;;;;;;;;;;;16.91;38.27;100350.00;5127976;28;19960;-65
2023/10/17 10:54:17;;;;;;;;;;;;;;;17.03;38.16;100343.50;5127324;28;20010;-65
2023/10/17 10:56:49;;;;;;;;;;;;;;;17.01;38.00;100339.34;5128998;28;19961;-66
2023/10/17 10:59:19;;;;;;;;;;;;;;;17.09;37.91;100347.13;5127773;28;19963;-66
2023/10/17 11:01:47;;;;;;;;;;;;;;;17.28;37.72;100338.81;5114025;28;19967;-65
2023/10/17 11:04:12;;;;;;;;;;;;;;;17.33;37.93;100352.50;5099712;28;19952;-66
2023/10/17 11:06:38;;;;;;;;;;;;;;;17.36;37.84;100360.13;5099315;28;19919;-66
2023/10/17 11:09:07;;;;;;;;;;;;;;;17.31;37.84;100360.03;5104085;28;19912;-66
2023/10/17 11:11:42;;;;;;;;;;;;;;;17.36;37.78;100357.44;5099159;28;19945;-66
2023/10/17 11:14:14;;;;;;;;;;;;;;;17.25;37.79;100356.38;5098322;28;19920;-66
2023/10/17 11:16:39;;;;;;;;;;;;;;;17.33;37.76;100356.03;5104442;28;20241;-66
2023/10/17 11:19:05;;;;;;;;;;;;;;;17.22;37.13;100363.13;5117824;28;19922;-66
2023/10/17 11:21:31;;;;;;;;;;;;;;;17.27;37.23;100364.28;5106459;28;19919;-65
2023/10/17 11:24:04;;;;;;;;;;;;;;;17.21;37.19;100350.63;5102850;28;19918;-65
2023/10/17 11:26:32;;;;;;;;;;;;;;;17.15;37.11;100358.91;5116905;28;19918;-65
2023/10/17 11:28:57;;;;;;;;;;;;;;;17.18;37.40;100356.53;5097384;28;20016;-65
2023/10/17 11:31:26;;;;;;;;;;;;;;;17.25;36.95;100350.16;5096933;28;19912;-65
2023/10/17 11:33:56;;;;;;;;;;;;;;;17.40;37.05;100350.44;5103018;28;19912;-65
2023/10/17 11:36:25;;;;;;;;;;;;;;;17.66;37.01;100354.47;5101842;28;20316;-65
2023/10/17 11:38:56;;;;;;;;;;;;;;;17.83;36.69;100346.38;5111773;28;19912;-65
2023/10/17 11:41:28;;;;;;;;;;;;;;;17.91;36.27;100346.00;5096617;28;19916;-66
2023/10/17 11:43:54;;;;;;;;;;;;;;;17.92;35.84;100336.78;5096414;28;19962;-66
2023/10/17 11:46:29;;;;;;;;;;;;;;;18.11;35.49;100333.84;5096412;28;19951;-65
2023/10/17 11:49:14;;;;;;;;;;;;;;;18.06;35.26;100331.84;5096441;28;20292;-65
2023/10/17 11:51:39;;;;;;;;;;;;;;;18.24;35.43;100332.66;5095447;28;19912;-65
2023/10/17 11:54:08;;;;;;;;;;;;;;;18.30;35.23;100334.41;5096006;28;19923;-66
2023/10/17 11:56:36;;;;;;;;;;;;;;;18.49;35.35;100326.78;5106318;28;19955;-65
2023/10/17 11:59:02;;;;;;;;;;;;;;;18.89;35.22;100331.19;5078277;28;19935;-65
2023/10/17 12:01:28;;;;;;;;;;;;;;;19.14;35.58;100334.22;5095825;28;19965;-66
2023/10/17 12:03:56;;;;;;;;;;;;;;;19.56;34.69;100334.66;5095719;28;19916;-66
2023/10/17 12:06:28;;;;;;;;;;;;;;;20.00;34.21;100329.13;5095843;28;20002;-66
2023/10/17 12:08:54;;;;;;;;;;;;;;;20.52;34.49;100316.69;5095976;28;19976;-67
2023/10/17 12:11:20;;;;;;;;;;;;;;;20.98;34.37;100315.06;5095791;28;19927;-67
2023/10/17 12:13:46;;;;;;;;;;;;;;;21.31;32.91;100315.72;5095816;28;19912;-66
2023/10/17 12:16:11;;;;;;;;;;;;;;;21.59;31.56;100317.19;5098405;28;19916;-66
2023/10/17 12:18:37;;;;;;;;;;;;;;;21.77;32.28;100307.66;5106790;28;19935;-66
2023/10/17 12:21:04;;;;;;;;;;;;;;;21.97;31.99;100309.56;5095546;28;19918;-66
2023/10/17 12:23:32;;;;;;;;;;;;;;;21.80;30.55;100312.56;5097022;28;19977;-66
2023/10/17 12:25:58;;;;;;;;;;;;;;;21.59;29.94;100299.97;5115746;28;19911;-66
2023/10/17 12:28:24;;;;;;;;;;;;;;;21.56;30.57;100305.97;5097028;28;19916;-66
2023/10/17 12:30:49;;;;;;;;;;;;;;;21.69;30.94;100307.34;5095092;28;19920;-67
2023/10/17 12:33:18;;;;;;;;;;;;;;;21.75;31.26;100315.28;5095266;28;19923;-66
2023/10/17 12:35:46;;;;;;;;;;;;;;;21.92;30.00;100301.34;5095170;28;19989;-66
2023/10/17 12:38:14;;;;;;;;;;;;;;;22.00;30.39;100300.00;5094964;28;19964;-66
2023/10/17 12:40:42;;;;;;;;;;;;;;;22.15;30.24;100291.75;5095153;28;19918;-66
2023/10/17 12:43:11;;;;;;;;;;;;;;;22.28;29.71;100292.34;5094944;28;19964;-66
2023/10/17 12:45:36;;;;;;;;;;;;;;;22.41;29.79;100283.56;5075189;28;20287;-66
2023/10/17 12:48:02;;;;;;;;;;;;;;;22.53;29.67;100283.22;5074971;28;20050;-66
2023/10/17 12:50:27;;;;;;;;;;;;;;;22.55;29.74;100268.19;5099419;28;19913;-66
2023/10/17 12:52:53;;;;;;;;;;;;;;;22.55;28.81;100265.47;5085240;28;19917;-66
2023/10/17 12:55:19;;;;;;;;;;;;;;;22.52;27.81;100267.94;5086458;28;19920;-66
2023/10/17 12:57:46;;;;;;;;;;;;;;;22.64;28.62;100265.72;5098143;28;19969;-66
2023/10/17 13:00:14;;;;;;;;;;;;;;;22.78;29.14;100261.25;5095180;28;19920;-66
2023/10/17 13:02:40;;;;;;;;;;;;;;;23.06;29.08;100260.91;5081190;28;19920;-66
2023/10/17 13:05:09;;;;;;;;;;;;;;;23.41;28.24;100262.59;5074878;28;19940;-67
2023/10/17 13:07:35;;;;;;;;;;;;;;;23.54;27.61;100261.16;5074959;28;19917;-66
2023/10/17 13:10:00;;;;;;;;;;;;;;;23.95;27.88;100260.84;5074225;28;20296;-66
2023/10/17 13:12:25;;;;;;;;;;;;;;;24.35;27.83;100259.63;5074554;28;19974;-66
2023/10/17 13:14:51;;;;;;;;;;;;;;;24.83;27.56;100256.09;5083163;28;19935;-66
2023/10/17 13:17:18;;;;;;;;;;;;;;;25.18;25.95;100259.44;5087621;28;19916;-66
2023/10/17 13:19:45;;;;;;;;;;;;;;;25.60;26.57;100257.75;5094682;28;19912;-66
2023/10/17 13:22:16;;;;;;;;;;;;;;;26.03;25.99;100251.28;5094100;28;19912;-66
2023/10/17 13:24:43;;;;;;;;;;;;;;;26.31;25.30;100245.81;5094548;28;20299;-66
2023/10/17 13:27:08;;;;;;;;;;;;;;;26.79;26.08;100240.75;5094287;28;20002;-66
2023/10/17 13:29:33;;;;;;;;;;;;;;;27.27;26.75;100238.63;5094315;28;19958;-66
2023/10/17 13:32:00;;;;;;;;;;;;;;;27.56;25.19;100235.44;5094432;28;19916;-66
2023/10/17 13:34:27;;;;;;;;;;;;;;;27.83;23.23;100239.22;5094500;28;20279;-66
2023/10/17 13:36:53;;;;;;;;;;;;;;;28.25;23.75;100239.75;5094150;28;19923;-66
2023/10/17 13:39:22;;;;;;;;;;;;;;;28.46;23.08;100243.59;5093928;28;19916;-67
2023/10/17 13:41:47;;;;;;;;;;;;;;;28.64;23.95;100241.75;5094489;28;19958;-67
2023/10/17 13:44:12;;;;;;;;;;;;;;;28.98;22.83;100240.19;5094192;28;20345;-67
2023/10/17 13:46:38;;;;;;;;;;;;;;;29.04;22.50;100236.13;5094061;28;19957;-66
2023/10/17 13:49:03;;;;;;;;;;;;;;;29.20;23.58;100239.25;5094181;28;19913;-67
2023/10/17 13:51:34;;;;;;;;;;;;;;;29.31;22.40;100239.75;5093945;28;19919;-67
2023/10/17 13:53:59;;;;;;;;;;;;;;;29.40;21.59;100231.44;5093574;28;20388;-67
2023/10/17 13:56:25;;;;;;;;;;;;;;;29.52;21.70;100226.88;5103499;28;19965;-67
2023/10/17 13:58:51;;;;;;;;;;;;;;;29.72;21.74;100216.28;5088149;28;19916;-67
2023/10/17 14:01:32;;;;;;;;;;;;;;;29.81;21.82;100205.19;5093631;28;19912;-67
2023/10/17 14:03:58;;;;;;;;;;;;;;;29.83;21.76;100213.97;5093681;28;19920;-67
2023/10/17 14:06:23;;;;;;;;;;;;;;;30.00;20.78;100216.72;5093555;28;19912;-67
2023/10/17 14:08:49;;;;;;;;;;;;;;;30.01;21.34;100214.75;5093872;28;19916;-67
2023/10/17 14:11:20;;;;;;;;;;;;;;;29.95;21.03;100210.53;5093535;28;19924;-67
2023/10/17 14:13:46;;;;;;;;;;;;;;;29.80;21.16;100204.38;5093372;28;20365;-66
2023/10/17 14:16:12;;;;;;;;;;;;;;;29.72;20.69;100205.19;5096401;28;19923;-66
2023/10/17 14:19:32;;;;;;;;;;;;;;;29.56;20.81;100215.97;5113998;28;19916;-66
2023/10/17 14:24:06;;;;;;;;;;;;;;;28.61;21.86;100205.66;5098992;28;19912;-66
2023/10/17 14:26:32;;;;;;;;;;;;;;;27.93;22.74;100208.59;5113838;28;19911;-66
2023/10/17 14:29:00;;;;;;;;;;;;;;;28.10;22.69;100216.97;5113724;28;20330;-67
2023/10/17 14:31:26;;;;;;;;;;;;;;;28.82;21.95;100216.91;5113823;28;19922;-67
2023/10/17 14:33:55;;;;;;;;;;;;;;;29.37;21.17;100213.53;5113706;28;20002;-67
2023/10/17 14:36:21;;;;;;;;;;;;;;;29.71;21.26;100212.66;5113449;28;20391;-65
2023/10/17 14:38:47;;;;;;;;;;;;;;;30.02;20.73;100213.59;5108812;28;19912;-66
2023/10/17 14:41:13;;;;;;;;;;;;;;;30.29;21.18;100209.56;5093493;28;19919;-66
2023/10/17 14:43:49;;;;;;;;;;;;;;;30.52;21.54;100212.94;5092993;28;19935;-66
2023/10/17 14:46:16;;;;;;;;;;;;;;;30.59;20.80;100207.66;5093210;28;19922;-67
2023/10/17 14:48:42;;;;;;;;;;;;;;;30.83;20.36;100212.56;5093685;28;19913;-66
2023/10/17 14:51:08;;;;;;;;;;;;;;;30.98;20.71;100225.06;5093135;28;19981;-66
2023/10/17 14:53:33;;;;;;;;;;;;;;;31.19;20.04;100216.72;5093517;28;19919;-66
2023/10/17 14:55:59;;;;;;;;;;;;;;;31.25;20.13;100220.91;5094897;28;20288;-66